AirNav   Air Wisconsin Up To $57,000 Bonus
 
 1027 users online  

59MO Hermann Area Hospital Heliport
Hermann, Missouri, USA

GOING TO HERMANN?


FAA INFORMATION EFFECTIVE 07 NOVEMBER 2019

Location

FAA Identifier: 59MO
Lat/Long: 38-41-35.7100N 091-27-01.1300W
38-41.595167N 091-27.018833W
38.6932528,-91.4503139
(estimated)
Elevation: 610 ft. / 186 m (estimated)
Variation: 03E (1985)
Time zone: UTC -6 (UTC -5 during Daylight Saving Time)
Zip code: 65041

Heliport Operations

Heliport use: Private use, MEDICAL.
Activation date: 11/1974
Control tower: no
ARTCC: KANSAS CITY CENTER
FSS: SAINT LOUIS FLIGHT SERVICE STATION
Attendance: CONTINUOUS
Wind indicator: yes
Segmented circle: no
Lights: SS-SR

Nearby radio navigation aids

VOR radial/distance  VOR name  Freq  Var
FTZr265/22.4FORISTELL VORTAC110.8005E
VIHr014/34.5VICHY VOR/DME117.7006E
COUr101/36.6COLUMBIA VOR/DME110.2000E

Heliport Services

Airframe service: NONE
Powerplant service: NONE

Runway Information

Helipad H1

Dimensions: 40 x 40 ft. / 12 x 12 m
Surface: asphalt/concrete
Runway edge lights: FLD
Runway edge markings: RED LANDING PAD W/WHITE CROSS.
Latitude: 38-41.595167N
Longitude: 091-27.018833W
Elevation: 610.0 ft.
Traffic pattern: leftleft

Heliport Ownership and Management from official FAA records

Ownership: Privately-owned
Owner: HERMANN AREA DISTRICT HOSP.
PO BOX 470
HERMANN, MO 65041
Phone 314-486-2191
Manager: DAN MC KINNEY, ADMIN
PO BOX 470
HERMANN, MO 65041
Phone 314-486-2191
ADDITIONAL CONTACT - STEVE GUMPER - MAINTENANCE DIRECTOR

Additional Remarks

A52-H1 30' BLDG SE.
FOR CD CTC MIZZOU APCH AT 417-868-5620/5619.

Instrument Procedures

There are no published instrument procedures at 59MO.

Some nearby airports with instrument procedures:

KFYG - Washington Regional Airport (22 nm E)
KFTT - Elton Hensley Memorial Airport (27 nm W)
KUUV - Sullivan Regional Airport (31 nm SE)
KMYJ - Mexico Memorial Airport (33 nm NW)
KJEF - Jefferson City Memorial Airport (34 nm W)
 
Loc | Ops | Rwys | IFR | FBO | Links
Com | Nav | Svcs | Stats | Notes

Kansas City Aviation Department
 
Area around 59MO (Hermann Area Hospital Heliport)
 
Road maps at: MapQuest Bing Google
 
Aerial photo
No photo
 
Sectional chart

 
Airport distance calculator
Flying to Hermann Area Hospital Heliport? Find the distance to fly.

From to 59MO

Sunrise and sunset
Times for 20-Nov-2019
 Local
(UTC-6)
 Zulu
(UTC)
Morning civil twilight06:2612:26
Sunrise06:5512:55
Sunset16:4822:48
Evening civil twilight17:1723:17

Current date and time
Zulu (UTC)  20-Nov-2019 12:45:49
Local (UTC-6)  20-Nov-2019 06:45:49
 
METAR
KFYG 
22nm E 
201235Z AUTO 00000KT 9SM CLR 00/00 A3012 RMK AO2
KMYJ 
33nm NW 
201235Z AUTO 12003KT 7SM CLR 00/00 A3009 RMK AO2
KJEF 
33nm W 
201153Z 13007KT 10SM CLR 01/M01 A3007 RMK AO2 SLP176 T00061006 10039 20006 51006 $
KCOU 
37nm W 
201154Z AUTO 10009KT 10SM CLR 05/00 A3006 RMK AO2 SLP180 T00500000 10089 20044 51008
KVIH 
37nm SW 
201153Z AUTO 14008KT 10SM CLR 07/M01 A3008 RMK AO2 SLP190 T00721011 10078 20033 53007 $
KSUS 
38nm E 
201154Z 08004KT 9SM CLR 03/02 A3011 RMK AO2 SLP201 T00330022 10039 21011 51006
TAF
KCOU 
37nm W 
201124Z 2012/2112 12009KT P6SM SKC FM201800 14012G20KT P6SM FEW250 FM210400 17013G19KT 6SM -SHRA OVC050 FM210800 18012G21KT 5SM -SHRA OVC025 FM211000 18014G23KT P6SM VCSH OVC015
KSUS 
38nm E 
201124Z 2012/2112 VRB03KT 6SM BR SKC TEMPO 2012/2015 4SM BR FM201500 13006KT P6SM FEW250 FM210700 17010G18KT 6SM -SHRA OVC060
NOTAMs
Click for the latest NOTAMs
NOTAMs are issued by the DoD/FAA and will open in a separate window not controlled by AirNav.

 

 
 

Would you like to see your business listed on this page?

 If your business provides an interesting product or service to pilots, flight crews, aircraft, or users of the Hermann Area Hospital Heliport, you should consider listing it here.  To start the listing process, click on the button below
 
Add a business
 

Other Pages about Hermann Area Hospital Heliport

Update a link
 
Copyright © AirNav, LLC. All rights reserved. Privacy Policy  Contact